createdAt,value
2022-10-25T00:01:26.899Z,9.73
2022-10-25T00:04:30.523Z,11.60
2022-10-25T00:07:34.243Z,14.97
2022-10-25T00:10:38.671Z,12.07
2022-10-25T00:13:42.232Z,7.17
2022-10-25T00:16:47.199Z,7.70
2022-10-25T00:19:51.036Z,12.60
2022-10-25T00:22:54.907Z,10.43
2022-10-25T00:26:03.212Z,15.00
2022-10-25T00:29:07.216Z,12.77
2022-10-25T00:32:12.213Z,7.80
2022-10-25T00:35:15.875Z,10.93
2022-10-25T00:38:19.467Z,9.53
2022-10-25T00:41:25.931Z,10.00
2022-10-25T00:44:56.163Z,9.30
2022-10-25T00:48:05.864Z,15.47
2022-10-25T00:51:10.318Z,13.40
2022-10-25T00:57:34.034Z,9.43
2022-10-25T01:00:37.864Z,13.80
2022-10-25T01:03:45.270Z,13.13
2022-10-25T01:06:52.834Z,11.97
2022-10-25T01:09:56.413Z,11.97
2022-10-25T01:13:03.182Z,13.63
2022-10-25T01:16:20.890Z,15.83
2022-10-25T01:19:54.237Z,10.53
2022-10-25T01:23:18.292Z,13.57
2022-10-25T01:26:59.859Z,12.47
2022-10-25T01:30:14.301Z,14.73
2022-10-25T01:33:29.007Z,14.10
2022-10-25T01:36:46.211Z,23.00
2022-10-25T01:39:58.455Z,13.37
2022-10-25T01:43:10.462Z,17.57
2022-10-25T01:46:26.379Z,14.87
2022-10-25T01:49:41.559Z,12.73
2022-10-25T01:52:45.188Z,12.07
2022-10-25T01:55:56.684Z,13.00
2022-10-25T01:59:30.579Z,11.30
2022-10-25T02:02:53.946Z,13.10
2022-10-25T02:06:16.587Z,16.33
2022-10-25T02:09:31.311Z,13.37
2022-10-25T02:12:49.698Z,13.23
2022-10-25T02:16:01.519Z,15.83
2022-10-25T02:19:10.524Z,11.87
2022-10-25T02:22:18.790Z,13.43
2022-10-25T02:25:23.373Z,16.77
2022-10-25T02:28:30.118Z,15.60
2022-10-25T02:31:38.085Z,16.63
2022-10-25T02:34:42.741Z,14.80
2022-10-25T02:37:48.255Z,13.53
2022-10-25T02:40:52.128Z,14.53
2022-10-25T02:43:55.754Z,15.07
2022-10-25T02:46:59.782Z,14.10
2022-10-25T02:50:03.399Z,13.87
2022-10-25T02:53:08.456Z,14.57
2022-10-25T02:56:15.513Z,12.63
2022-10-25T02:59:21.248Z,15.27
2022-10-25T03:02:24.900Z,14.60
2022-10-25T03:05:28.473Z,13.33
2022-10-25T03:08:33.781Z,12.70
2022-10-25T03:11:37.569Z,15.90
2022-10-25T03:14:41.154Z,17.60
2022-10-25T03:17:44.910Z,11.50
2022-10-25T03:20:48.675Z,13.63
2022-10-25T03:23:54.282Z,14.60
2022-10-25T03:26:57.804Z,15.90
2022-10-25T03:30:01.384Z,15.20
2022-10-25T03:33:05.084Z,14.40
2022-10-25T03:36:09.803Z,12.50
2022-10-25T03:39:15.498Z,16.40
2022-10-25T03:42:19.022Z,14.23
2022-10-25T03:45:24.518Z,16.23
2022-10-25T03:48:28.447Z,16.17
2022-10-25T03:51:32.019Z,18.13
2022-10-25T03:54:36.998Z,11.67
2022-10-25T03:57:40.587Z,17.70
2022-10-25T04:00:44.217Z,14.47
2022-10-25T04:03:47.851Z,13.80
2022-10-25T04:06:51.397Z,14.93
2022-10-25T04:09:56.372Z,16.57
2022-10-25T04:13:00.054Z,18.30
2022-10-25T04:16:08.405Z,16.63
2022-10-25T04:19:11.986Z,14.20
2022-10-25T04:22:15.590Z,16.90
2022-10-25T04:25:20.643Z,16.47
2022-10-25T04:28:24.568Z,17.73
2022-10-25T04:31:28.116Z,12.53
2022-10-25T04:34:31.891Z,13.40
2022-10-25T04:37:35.503Z,11.97
2022-10-25T04:40:40.460Z,17.43
2022-10-25T04:43:44.147Z,17.10
2022-10-25T04:46:49.002Z,17.03
2022-10-25T04:49:53.024Z,17.07
2022-10-25T04:52:56.736Z,21.13
2022-10-25T04:56:03.835Z,23.00
2022-10-25T04:59:07.450Z,19.77
2022-10-25T05:02:11.303Z,19.57
2022-10-25T05:05:15.087Z,15.87
2022-10-25T05:08:18.647Z,23.30
2022-10-25T05:11:25.881Z,23.70
2022-10-25T05:14:29.629Z,19.17
2022-10-25T05:17:33.805Z,21.17
2022-10-25T05:20:37.409Z,19.37
2022-10-25T05:23:41.434Z,18.37
2022-10-25T05:26:46.551Z,18.40
2022-10-25T05:29:50.112Z,19.37
2022-10-25T05:32:53.699Z,17.50
2022-10-25T05:35:57.391Z,15.33
2022-10-25T05:39:01.991Z,18.93
2022-10-25T05:42:07.407Z,16.20
2022-10-25T05:45:11.849Z,18.33
2022-10-25T05:48:15.703Z,22.73
2022-10-25T05:51:38.575Z,28.57
2022-10-25T05:54:42.166Z,18.00
2022-10-25T05:57:52.714Z,23.70
2022-10-25T06:00:59.905Z,15.23
2022-10-25T06:04:03.925Z,16.83
2022-10-25T06:07:07.668Z,17.57
2022-10-25T06:10:11.715Z,15.53
2022-10-25T06:13:16.664Z,17.87
2022-10-25T06:16:22.064Z,19.47
2022-10-25T06:19:25.761Z,18.63
2022-10-25T06:22:29.378Z,25.60
2022-10-25T06:25:33.047Z,18.97
2022-10-25T06:28:38.684Z,17.07
2022-10-25T06:31:43.451Z,15.97
2022-10-25T06:34:47.018Z,20.97
2022-10-25T06:37:50.743Z,18.97
2022-10-25T06:40:59.007Z,19.93
2022-10-25T06:44:06.443Z,22.47
2022-10-25T06:47:17.435Z,20.80
2022-10-25T06:50:21.651Z,18.77
2022-10-25T06:53:25.315Z,18.87
2022-10-25T06:56:30.429Z,16.17
2022-10-25T06:59:35.564Z,19.23
2022-10-25T07:02:39.175Z,19.77
2022-10-25T07:05:42.776Z,21.90
2022-10-25T07:08:48.420Z,22.73
2022-10-25T07:11:52.214Z,19.50
2022-10-25T07:14:57.166Z,16.97
2022-10-25T07:18:00.675Z,19.57
2022-10-25T07:21:07.117Z,19.17
2022-10-25T07:24:11.903Z,22.60
2022-10-25T07:27:16.641Z,16.90
2022-10-25T07:30:21.599Z,18.13
2022-10-25T07:33:25.171Z,19.63
2022-10-25T07:36:28.968Z,17.97
2022-10-25T07:39:32.520Z,17.07
2022-10-25T07:42:36.071Z,13.77
2022-10-25T07:45:41.467Z,18.00
2022-10-25T07:48:45.136Z,24.43
2022-10-25T07:51:48.679Z,18.83
2022-10-25T07:54:52.180Z,14.47
2022-10-25T07:58:02.436Z,16.67
2022-10-25T08:01:10.919Z,17.63
2022-10-25T08:04:14.541Z,18.03
2022-10-25T08:07:18.241Z,15.90
2022-10-25T08:10:23.189Z,15.83
2022-10-25T08:13:27.126Z,14.53
2022-10-25T08:16:32.123Z,24.10
2022-10-25T08:19:35.808Z,15.93
2022-10-25T08:22:39.506Z,12.70
2022-10-25T08:25:43.903Z,17.87
2022-10-25T08:28:47.513Z,18.83
2022-10-25T08:31:52.666Z,14.33
2022-10-25T08:34:56.291Z,15.77
2022-10-25T08:38:02.270Z,16.30
2022-10-25T08:41:16.833Z,16.60
2022-10-25T08:44:43.096Z,16.30
2022-10-25T08:47:54.154Z,16.70
2022-10-25T08:51:06.070Z,18.57
2022-10-25T08:54:28.078Z,14.37
2022-10-25T08:57:39.515Z,20.27
2022-10-25T09:00:48.228Z,13.33
2022-10-25T09:03:53.314Z,12.33
2022-10-25T09:07:15.316Z,17.70
2022-10-25T09:10:39.075Z,12.27
2022-10-25T09:13:53.905Z,13.57
2022-10-25T09:17:07.959Z,15.13
2022-10-25T09:20:22.506Z,17.83
2022-10-25T09:23:31.644Z,12.50
2022-10-25T09:26:49.455Z,13.10
2022-10-25T09:30:05.209Z,14.27
2022-10-25T09:36:28.947Z,14.97
2022-10-25T09:39:41.554Z,12.43
2022-10-25T09:42:52.915Z,15.27
2022-10-25T09:46:01.667Z,15.03
2022-10-25T09:49:21.872Z,15.50
2022-10-25T09:52:38.320Z,11.83
2022-10-25T09:55:53.924Z,10.43
2022-10-25T09:59:01.325Z,13.20
2022-10-25T10:02:05.668Z,9.77
2022-10-25T10:05:16.529Z,11.57
2022-10-25T10:08:21.548Z,10.50
2022-10-25T10:11:26.382Z,12.03
2022-10-25T10:14:39.219Z,10.00
2022-10-25T10:17:42.780Z,12.13
2022-10-25T10:21:01.645Z,16.50
2022-10-25T10:24:09.085Z,11.73
2022-10-25T10:27:26.301Z,9.53
2022-10-25T10:30:32.182Z,12.53
2022-10-25T10:33:39.348Z,14.67
2022-10-25T10:36:45.872Z,7.20
2022-10-25T10:39:54.392Z,11.03
2022-10-25T10:42:59.182Z,9.47
2022-10-25T10:46:07.157Z,7.23
2022-10-25T10:49:12.254Z,8.70
2022-10-25T10:52:31.882Z,12.23
2022-10-25T10:55:40.612Z,7.50
2022-10-25T10:58:53.598Z,8.57
2022-10-25T11:01:58.086Z,11.50
2022-10-25T11:05:01.827Z,11.50
2022-10-25T11:08:20.041Z,8.27
2022-10-25T11:11:26.124Z,19.73
2022-10-25T11:14:29.856Z,8.30
2022-10-25T11:17:44.851Z,11.47
2022-10-25T11:20:54.754Z,7.17
2022-10-25T11:24:13.704Z,8.77
2022-10-25T11:27:35.016Z,9.83
2022-10-25T11:30:48.726Z,8.47
2022-10-25T11:34:10.136Z,9.37
2022-10-25T11:37:22.282Z,9.27
2022-10-25T11:40:34.364Z,11.07
2022-10-25T11:44:03.332Z,8.90
2022-10-25T11:47:24.628Z,8.93
2022-10-25T11:50:41.031Z,11.47
2022-10-25T11:54:09.546Z,8.10
2022-10-25T11:57:29.260Z,8.13
2022-10-25T12:00:53.441Z,11.13
2022-10-25T12:04:16.570Z,9.47
2022-10-25T12:07:30.101Z,6.67
2022-10-25T12:10:39.772Z,8.93
2022-10-25T12:13:50.404Z,9.43
2022-10-25T12:16:57.855Z,13.97
2022-10-25T12:20:06.832Z,9.57
2022-10-25T12:23:18.131Z,9.07
2022-10-25T12:26:31.460Z,8.00
2022-10-25T12:29:40.607Z,9.77
2022-10-25T12:32:52.226Z,7.67
2022-10-25T12:36:05.127Z,8.10
2022-10-25T12:39:17.910Z,7.30
2022-10-25T12:42:27.110Z,5.53
2022-10-25T12:46:14.984Z,6.30
2022-10-25T12:49:57.254Z,6.37
2022-10-25T12:54:08.269Z,9.67
2022-10-25T12:57:26.761Z,6.60
2022-10-25T13:00:41.142Z,6.17
2022-10-25T13:04:28.786Z,7.80
2022-10-25T13:07:37.304Z,7.30
2022-10-25T13:10:47.496Z,6.07
2022-10-25T13:13:54.263Z,4.63
2022-10-25T13:17:59.933Z,2.50
2022-10-25T13:21:06.783Z,3.63
2022-10-25T13:24:11.848Z,4.50
2022-10-25T13:27:22.558Z,5.47
2022-10-25T13:30:32.046Z,6.47
2022-10-25T13:33:36.161Z,3.03
2022-10-25T13:36:51.649Z,8.97
2022-10-25T13:39:57.551Z,4.37
2022-10-25T13:43:05.747Z,8.03
2022-10-25T13:46:12.682Z,5.47
2022-10-25T13:49:44.774Z,6.83
2022-10-25T13:53:03.456Z,4.90
2022-10-25T13:56:14.974Z,3.83
2022-10-25T13:59:59.873Z,9.27
2022-10-25T14:03:47.486Z,7.63
2022-10-25T14:06:51.072Z,4.43
2022-10-25T14:09:55.336Z,5.57
2022-10-25T14:13:22.952Z,8.50
2022-10-25T14:16:32.270Z,9.10
2022-10-25T14:19:43.407Z,3.73
2022-10-25T14:22:57.414Z,5.07
2022-10-25T14:26:03.692Z,8.07
2022-10-25T14:29:22.995Z,5.47
2022-10-25T14:32:26.564Z,7.37
2022-10-25T14:35:35.142Z,4.53
2022-10-25T14:38:53.335Z,5.10
2022-10-25T14:41:59.192Z,4.37
2022-10-25T14:45:04.222Z,4.47
2022-10-25T14:48:11.070Z,6.37
2022-10-25T14:51:22.244Z,8.07
2022-10-25T14:54:31.066Z,7.03
2022-10-25T14:57:36.282Z,4.87
2022-10-25T15:00:41.823Z,5.80
2022-10-25T15:03:48.991Z,5.07
2022-10-25T15:06:52.674Z,6.67
2022-10-25T15:10:00.137Z,7.57
2022-10-25T15:13:06.033Z,3.37
2022-10-25T15:16:38.727Z,5.03
2022-10-25T15:20:02.346Z,6.03
2022-10-25T15:23:16.734Z,6.43
2022-10-25T15:26:29.308Z,5.23
2022-10-25T15:32:58.359Z,5.03
2022-10-25T15:36:05.404Z,7.60
2022-10-25T15:39:27.819Z,5.87
2022-10-25T15:42:31.323Z,8.00
2022-10-25T15:45:37.925Z,7.37
2022-10-25T15:48:45.272Z,5.20
2022-10-25T15:51:50.511Z,4.47
2022-10-25T15:54:54.383Z,10.83
2022-10-25T15:57:57.930Z,5.77
2022-10-25T16:01:01.535Z,7.93
2022-10-25T16:04:06.720Z,8.23
2022-10-25T16:07:12.455Z,7.93
2022-10-25T16:10:16.652Z,10.57
2022-10-25T16:13:28.981Z,5.83
2022-10-25T16:16:40.335Z,3.80
2022-10-25T16:19:45.829Z,4.27
2022-10-25T16:22:50.501Z,7.17
2022-10-25T16:25:56.343Z,6.93
2022-10-25T16:28:59.995Z,8.20
2022-10-25T16:32:04.115Z,8.47
2022-10-25T16:35:11.080Z,4.77
2022-10-25T16:38:16.583Z,12.13
2022-10-25T16:41:25.798Z,6.20
2022-10-25T16:44:29.435Z,6.43
2022-10-25T16:47:33.059Z,7.17
2022-10-25T16:50:38.194Z,5.40
2022-10-25T16:53:42.198Z,5.20
2022-10-25T16:56:45.831Z,6.13
2022-10-25T16:59:50.605Z,6.97
2022-10-25T17:02:54.790Z,7.93
2022-10-25T17:06:00.512Z,9.73
2022-10-25T17:09:08.340Z,9.87
2022-10-25T17:12:12.624Z,6.83
2022-10-25T17:15:37.491Z,11.17
2022-10-25T17:18:41.522Z,9.13
2022-10-25T17:21:46.549Z,8.10
2022-10-25T17:24:50.064Z,10.10
2022-10-25T17:27:54.759Z,12.57
2022-10-25T17:30:58.910Z,10.90
2022-10-25T17:34:03.884Z,10.47
2022-10-25T17:37:08.797Z,12.03
2022-10-25T17:40:14.812Z,12.37
2022-10-25T17:43:18.429Z,9.50
2022-10-25T17:46:25.911Z,14.10
2022-10-25T17:49:29.543Z,8.67
2022-10-25T17:52:34.530Z,12.03
2022-10-25T17:55:41.158Z,10.20
2022-10-25T17:58:47.194Z,9.00
2022-10-25T18:01:50.908Z,9.90
2022-10-25T18:05:19.047Z,13.03
2022-10-25T18:08:20.102Z,16.00
2022-10-25T18:11:26.054Z,12.53
2022-10-25T18:14:29.675Z,10.90
2022-10-25T18:17:33.505Z,11.00
2022-10-25T18:20:40.483Z,11.37
2022-10-25T18:23:45.593Z,12.67
2022-10-25T18:26:49.211Z,12.20
2022-10-25T18:29:52.875Z,11.27
2022-10-25T18:32:56.531Z,11.73
2022-10-25T18:36:01.003Z,13.90
2022-10-25T18:39:06.309Z,14.33
2022-10-25T18:42:10.111Z,14.67
2022-10-25T18:45:13.721Z,14.03
2022-10-25T18:48:17.552Z,15.67
2022-10-25T18:51:24.603Z,11.23
2022-10-25T18:54:29.543Z,11.17
2022-10-25T18:57:33.207Z,12.40
2022-10-25T19:00:36.779Z,14.10
2022-10-25T19:03:41.627Z,13.20
2022-10-25T19:06:45.633Z,11.37
2022-10-25T19:09:50.576Z,11.63
2022-10-25T19:12:54.143Z,11.93
2022-10-25T19:15:58.968Z,12.40
2022-10-25T19:19:07.088Z,12.27
2022-10-25T19:22:10.688Z,12.97
2022-10-25T19:25:18.106Z,12.50
2022-10-25T19:28:24.580Z,20.07
2022-10-25T19:31:29.552Z,14.40
2022-10-25T19:34:33.495Z,12.67
2022-10-25T19:37:40.091Z,10.67
2022-10-25T19:40:47.238Z,12.43
2022-10-25T19:43:51.639Z,13.03
2022-10-25T19:46:55.245Z,18.37
2022-10-25T19:49:58.901Z,11.90
2022-10-25T19:53:02.528Z,10.93
2022-10-25T19:56:11.456Z,15.40
2022-10-25T19:59:15.412Z,13.20
2022-10-25T20:02:19.289Z,15.53
2022-10-25T20:05:23.830Z,14.30
2022-10-25T20:08:27.743Z,13.97
2022-10-25T20:11:34.007Z,12.57
2022-10-25T20:14:37.751Z,17.03
2022-10-25T20:17:41.571Z,17.10
2022-10-25T20:20:45.207Z,29.37
2022-10-25T20:23:54.930Z,21.93
2022-10-25T20:27:01.977Z,19.53
2022-10-25T20:30:06.919Z,15.80
2022-10-25T20:33:10.575Z,13.53
2022-10-25T20:36:15.479Z,13.87
2022-10-25T20:39:19.309Z,13.17
2022-10-25T20:42:24.368Z,14.50
2022-10-25T20:45:44.069Z,11.70
2022-10-25T20:48:49.033Z,16.17
2022-10-25T20:51:52.743Z,15.77
2022-10-25T20:58:06.787Z,12.33
2022-10-25T21:01:11.159Z,12.10
2022-10-25T21:04:21.827Z,13.93
2022-10-25T21:07:34.508Z,10.90
2022-10-25T21:10:38.453Z,14.47
2022-10-25T21:13:45.055Z,11.73
2022-10-25T21:16:51.229Z,13.03
2022-10-25T21:19:54.929Z,15.00
2022-10-25T21:22:58.643Z,14.20
2022-10-25T21:26:03.918Z,14.30
2022-10-25T21:29:09.567Z,18.07
2022-10-25T21:32:13.146Z,11.33
2022-10-25T21:35:17.830Z,12.47
2022-10-25T21:38:21.414Z,14.30
2022-10-25T21:41:27.108Z,15.27
2022-10-25T21:44:32.243Z,19.20
2022-10-25T21:47:36.307Z,14.30
2022-10-25T21:50:39.851Z,14.07
2022-10-25T21:53:43.890Z,11.87
2022-10-25T21:56:47.613Z,15.57
2022-10-25T21:59:52.597Z,11.77
2022-10-25T22:02:57.054Z,11.97
2022-10-25T22:06:00.726Z,9.97
2022-10-25T22:09:05.254Z,9.60
2022-10-25T22:12:08.958Z,7.23
2022-10-25T22:15:13.951Z,8.83
2022-10-25T22:18:17.551Z,7.57
2022-10-25T22:21:23.072Z,10.50
2022-10-25T22:24:26.702Z,10.97
2022-10-25T22:27:30.278Z,8.17
2022-10-25T22:30:35.241Z,9.10
2022-10-25T22:33:39.256Z,10.30
2022-10-25T22:36:43.256Z,11.87
2022-10-25T22:39:46.810Z,8.50
2022-10-25T22:42:50.378Z,10.47
2022-10-25T22:45:55.510Z,9.37
2022-10-25T22:49:01.380Z,10.87
2022-10-25T22:52:05.759Z,7.60
2022-10-25T22:55:10.539Z,8.23
2022-10-25T22:58:14.082Z,5.67
2022-10-25T23:01:21.748Z,5.90
2022-10-25T23:04:25.332Z,6.80
2022-10-25T23:07:29.070Z,7.00
2022-10-25T23:10:32.632Z,8.70
2022-10-25T23:13:39.219Z,8.27
2022-10-25T23:16:44.166Z,8.53
2022-10-25T23:19:49.143Z,8.27
2022-10-25T23:22:52.726Z,7.13
2022-10-25T23:26:01.087Z,6.10
2022-10-25T23:29:05.961Z,8.13
2022-10-25T23:32:11.198Z,6.83
2022-10-25T23:35:14.959Z,6.83
2022-10-25T23:38:18.595Z,7.87
2022-10-25T23:41:23.294Z,10.30
2022-10-25T23:44:26.954Z,10.53
2022-10-25T23:47:32.336Z,12.37
2022-10-25T23:50:35.931Z,8.40
2022-10-25T23:53:40.172Z,10.60
2022-10-25T23:56:43.849Z,8.33
2022-10-25T23:59:47.423Z,13.73
